Time;durP1;ratioP1;P1;durP2;ratioP2;P2;SDS_P1;SDS_P2;PMS_P1;PMS_P2;Temp;Humidity;BMP_temperature;BMP_pressure;BME280_temperature;BME280_humidity;BME280_pressure;Samples;Min_cycle;Max_cycle;Signal;HPM_P1;HPM_P2
2022/01/03 00:01:33;;;;;;;23.88;13.80;;;;;;;;;;5028590;28;20168;-73
2022/01/03 00:03:59;;;;;;;38.78;17.10;;;;;;;;;;5062433;28;20412;-73
2022/01/03 00:06:25;;;;;;;32.90;16.35;;;;;;;;;;5042402;28;20021;-73
2022/01/03 00:08:51;;;;;;;47.78;22.42;;;;;;;;;;5041830;28;20427;-73
2022/01/03 00:11:18;;;;;;;55.00;26.27;;;;;;;;;;5041623;28;20032;-73
2022/01/03 00:13:46;;;;;;;82.78;38.33;;;;;;;;;;5059022;28;20024;-73
2022/01/03 00:16:12;;;;;;;91.25;40.08;;;;;;;;;;5059223;28;20496;-73
2022/01/03 00:18:42;;;;;;;80.22;35.55;;;;;;;;;;5059586;28;20119;-72
2022/01/03 00:21:16;;;;;;;75.53;38.75;;;;;;;;;;5025091;28;20040;-73
2022/01/03 00:24:14;;;;;;;63.75;34.97;;;;;;;;;;5041824;28;20029;-73
2022/01/03 00:27:14;;;;;;;83.40;39.50;;;;;;;;;;5059186;28;20017;-73
2022/01/03 00:29:51;;;;;;;83.57;39.83;;;;;;;;;;5058641;28;20130;-73
2022/01/03 00:32:17;;;;;;;75.72;39.25;;;;;;;;;;5024808;28;20029;-73
2022/01/03 00:34:44;;;;;;;78.00;38.95;;;;;;;;;;5041471;28;20021;-72
2022/01/03 00:37:10;;;;;;;74.20;38.28;;;;;;;;;;5058655;28;20021;-73
2022/01/03 00:39:37;;;;;;;71.57;34.38;;;;;;;;;;5040806;28;20045;-73
2022/01/03 00:42:04;;;;;;;75.80;38.45;;;;;;;;;;5058142;28;20012;-73
2022/01/03 00:44:31;;;;;;;78.75;40.60;;;;;;;;;;5040471;28;20331;-73
2022/01/03 00:46:58;;;;;;;67.80;40.75;;;;;;;;;;5041156;28;20017;-73
2022/01/03 00:49:24;;;;;;;77.43;43.78;;;;;;;;;;5024818;28;20086;-73
2022/01/03 00:51:50;;;;;;;89.93;48.22;;;;;;;;;;5040178;28;20017;-73
2022/01/03 00:54:16;;;;;;;105.40;56.88;;;;;;;;;;5040410;28;20098;-73
2022/01/03 00:56:47;;;;;;;77.13;43.72;;;;;;;;;;5024612;28;20049;-73
2022/01/03 00:59:23;;;;;;;86.13;44.13;;;;;;;;;;5024618;28;20032;-73
2022/01/03 01:01:53;;;;;;;74.65;39.60;;;;;;;;;;5058487;28;20119;-73
2022/01/03 01:04:20;;;;;;;78.25;41.55;;;;;;;;;;5040984;28;20024;-73
2022/01/03 01:06:50;;;;;;;76.93;40.83;;;;;;;;;;5040362;28;20021;-72
2022/01/03 01:09:18;;;;;;;75.38;40.28;;;;;;;;;;5040894;28;20148;-72
2022/01/03 01:11:44;;;;;;;73.20;38.08;;;;;;;;;;5058585;28;20021;-72
2022/01/03 01:14:11;;;;;;;79.93;39.38;;;;;;;;;;5058083;28;20072;-72
2022/01/03 01:16:37;;;;;;;88.20;45.78;;;;;;;;;;5024394;28;20339;-73
2022/01/03 01:19:04;;;;;;;76.03;45.35;;;;;;;;;;5039952;28;20032;-73
2022/01/03 01:21:30;;;;;;;91.22;49.75;;;;;;;;;;5040577;28;20017;-73
2022/01/03 01:23:57;;;;;;;76.13;41.17;;;;;;;;;;5058132;28;20025;-73
2022/01/03 01:29:09;;;;;;;69.88;36.67;;;;;;;;;;5036942;28;20041;-73
2022/01/03 01:31:36;;;;;;;64.00;34.78;;;;;;;;;;5036646;28;20104;-73
2022/01/03 01:34:05;;;;;;;50.97;32.08;;;;;;;;;;5038049;28;20028;-73
2022/01/03 01:36:32;;;;;;;52.10;27.08;;;;;;;;;;5023820;28;20025;-73
2022/01/03 01:39:06;;;;;;;42.13;25.40;;;;;;;;;;5037156;28;20052;-74
2022/01/03 01:41:34;;;;;;;57.75;31.02;;;;;;;;;;5023349;28;20021;-73
2022/01/03 01:44:00;;;;;;;60.03;34.53;;;;;;;;;;5039713;28;20020;-72
2022/01/03 01:46:26;;;;;;;73.00;40.45;;;;;;;;;;5039648;28;20025;-73
2022/01/03 01:48:52;;;;;;;83.20;42.40;;;;;;;;;;5039267;28;20470;-73
2022/01/03 01:51:21;;;;;;;78.68;40.70;;;;;;;;;;5039050;28;20031;-73
2022/01/03 01:53:52;;;;;;;90.45;45.38;;;;;;;;;;5039996;28;20024;-73
2022/01/03 01:56:23;;;;;;;102.07;56.92;;;;;;;;;;5039613;28;20075;-73
2022/01/03 01:59:10;;;;;;;116.25;60.95;;;;;;;;;;5039598;28;20025;-73
2022/01/03 02:01:56;;;;;;;119.75;62.58;;;;;;;;;;5056829;28;20044;-73
2022/01/03 02:04:37;;;;;;;118.65;65.38;;;;;;;;;;5054994;28;20112;-74
2022/01/03 02:07:30;;;;;;;113.63;53.80;;;;;;;;;;5038229;28;20439;-73
2022/01/03 02:10:10;;;;;;;95.20;45.67;;;;;;;;;;5022406;28;20048;-73
2022/01/03 02:12:40;;;;;;;98.70;47.45;;;;;;;;;;5022739;28;20096;-73
2022/01/03 02:15:10;;;;;;;111.18;52.45;;;;;;;;;;5039111;28;20419;-73
2022/01/03 02:17:37;;;;;;;102.00;52.53;;;;;;;;;;5038628;28;20107;-73
2022/01/03 02:20:05;;;;;;;181.20;96.05;;;;;;;;;;5022649;28;20021;-73
2022/01/03 02:22:31;;;;;;;196.00;105.50;;;;;;;;;;5022669;28;20046;-73
2022/01/03 02:24:57;;;;;;;181.13;97.80;;;;;;;;;;5022276;28;20029;-73
2022/01/03 02:27:23;;;;;;;166.50;89.63;;;;;;;;;;5039053;28;20036;-73
2022/01/03 02:29:49;;;;;;;178.52;97.78;;;;;;;;;;5028987;28;20119;-74
2022/01/03 02:32:17;;;;;;;137.13;75.97;;;;;;;;;;5021551;28;20029;-74
2022/01/03 02:34:44;;;;;;;185.07;99.32;;;;;;;;;;5022585;28;20442;-73
2022/01/03 02:37:10;;;;;;;202.65;104.78;;;;;;;;;;5057506;28;20036;-72
2022/01/03 02:39:37;;;;;;;197.20;102.57;;;;;;;;;;5038377;28;20484;-73
2022/01/03 02:42:03;;;;;;;180.55;98.70;;;;;;;;;;5040991;28;20028;-73
2022/01/03 02:44:29;;;;;;;187.52;99.78;;;;;;;;;;5040083;28;20021;-73
2022/01/03 02:46:55;;;;;;;179.00;95.90;;;;;;;;;;5039780;28;20032;-73
2022/01/03 02:49:21;;;;;;;179.65;91.95;;;;;;;;;;5055427;28;20427;-73
2022/01/03 02:51:47;;;;;;;159.73;85.78;;;;;;;;;;5038968;28;20025;-73
2022/01/03 02:54:13;;;;;;;159.77;84.47;;;;;;;;;;5029214;28;20020;-74
2022/01/03 02:56:44;;;;;;;181.10;94.00;;;;;;;;;;5022104;28;20434;-74
2022/01/03 02:59:12;;;;;;;168.18;90.80;;;;;;;;;;5057101;28;20021;-73
2022/01/03 03:01:40;;;;;;;165.20;93.93;;;;;;;;;;5021174;28;20047;-73
2022/01/03 03:04:06;;;;;;;172.60;95.10;;;;;;;;;;5021900;28;20048;-73
2022/01/03 03:06:32;;;;;;;108.03;54.00;;;;;;;;;;5037981;28;20346;-73
2022/01/03 03:08:58;;;;;;;91.05;46.78;;;;;;;;;;5054901;28;20056;-73
2022/01/03 03:11:24;;;;;;;85.53;44.88;;;;;;;;;;5037885;28;20068;-73
2022/01/03 03:13:51;;;;;;;59.22;31.63;;;;;;;;;;5055520;28;20053;-73
2022/01/03 03:16:27;;;;;;;128.20;67.18;;;;;;;;;;5035780;28;20021;-74
2022/01/03 03:19:13;;;;;;;133.63;72.40;;;;;;;;;;5028927;28;20481;-73
2022/01/03 03:21:39;;;;;;;139.82;73.43;;;;;;;;;;5020875;28;20156;-73
2022/01/03 03:24:06;;;;;;;102.38;56.08;;;;;;;;;;5021380;28;20051;-72
2022/01/03 03:26:32;;;;;;;101.40;57.10;;;;;;;;;;5037363;28;20028;-72
2022/01/03 03:28:58;;;;;;;72.88;39.55;;;;;;;;;;5021570;28;20037;-73
2022/01/03 03:31:24;;;;;;;66.60;33.10;;;;;;;;;;5021093;28;20417;-72
2022/01/03 03:33:50;;;;;;;53.47;29.38;;;;;;;;;;5056400;28;20033;-73
2022/01/03 03:36:16;;;;;;;54.10;27.27;;;;;;;;;;5055182;28;20021;-73
2022/01/03 03:38:42;;;;;;;47.40;23.58;;;;;;;;;;5056044;28;20124;-72
2022/01/03 03:41:10;;;;;;;45.97;28.23;;;;;;;;;;5039302;28;20025;-72
2022/01/03 03:43:47;;;;;;;47.90;22.20;;;;;;;;;;5021659;28;20055;-73
2022/01/03 03:46:34;;;;;;;57.72;24.25;;;;;;;;;;5037998;28;20407;-72
2022/01/03 03:49:00;;;;;;;42.40;21.48;;;;;;;;;;5059204;28;20025;-72
2022/01/03 03:51:29;;;;;;;38.75;19.17;;;;;;;;;;5023692;28;20032;-73
2022/01/03 03:53:56;;;;;;;47.58;19.38;;;;;;;;;;5025091;28;20448;-72
2022/01/03 03:56:22;;;;;;;38.63;17.88;;;;;;;;;;5040909;28;20064;-73
2022/01/03 03:58:49;;;;;;;44.40;20.60;;;;;;;;;;5018085;28;20172;-73
2022/01/03 04:01:17;;;;;;;49.42;24.83;;;;;;;;;;5041460;28;20017;-72
2022/01/03 04:03:43;;;;;;;46.50;22.60;;;;;;;;;;5022928;28;20047;-73
2022/01/03 04:08:48;;;;;;;37.10;20.75;;;;;;;;;;5054467;28;20134;-72
2022/01/03 04:11:14;;;;;;;41.13;20.90;;;;;;;;;;5059065;28;20021;-72
2022/01/03 04:13:41;;;;;;;33.13;17.30;;;;;;;;;;5058175;28;20449;-72
2022/01/03 04:16:10;;;;;;;30.63;18.42;;;;;;;;;;5040871;28;20025;-73
2022/01/03 04:18:38;;;;;;;37.53;18.92;;;;;;;;;;5057744;28;20081;-73
2022/01/03 04:21:05;;;;;;;30.55;17.58;;;;;;;;;;5037455;28;20380;-73
2022/01/03 04:23:31;;;;;;;37.60;19.08;;;;;;;;;;5038135;28;20021;-73
2022/01/03 04:25:57;;;;;;;39.83;23.65;;;;;;;;;;5034221;28;20017;-73
2022/01/03 04:28:25;;;;;;;36.45;18.70;;;;;;;;;;5015951;28;20056;-73
2022/01/03 04:30:51;;;;;;;26.27;14.27;;;;;;;;;;5022104;28;20024;-73
2022/01/03 04:33:17;;;;;;;16.38;9.10;;;;;;;;;;5011376;23;20104;-74
2022/01/03 04:35:47;;;;;;;23.33;10.13;;;;;;;;;;5027399;22;20068;-74
2022/01/03 04:38:46;;;;;;;20.15;9.38;;;;;;;;;;5035844;28;20505;-75
2022/01/03 04:41:24;;;;;;;18.17;7.55;;;;;;;;;;5025869;23;20060;-73
2022/01/03 04:44:05;;;;;;;34.65;10.65;;;;;;;;;;5031063;22;20147;-74
2022/01/03 04:52:05;;;;;;;20.35;8.25;;;;;;;;;;5049993;22;20343;-75
2022/01/03 04:54:41;;;;;;;18.40;7.70;;;;;;;;;;4993815;28;20026;-74
2022/01/03 05:00:08;;;;;;;15.38;6.85;;;;;;;;;;5069012;22;20053;-73
2022/01/03 05:03:03;;;;;;;18.73;8.13;;;;;;;;;;5005466;28;20123;-73
2022/01/03 05:05:38;;;;;;;13.63;6.60;;;;;;;;;;5023484;28;20071;-76
2022/01/03 05:11:03;;;;;;;15.07;7.80;;;;;;;;;;5029024;28;20042;-75
2022/01/03 05:13:29;;;;;;;;;;;;;;;;;;5035756;28;20021;-73
2022/01/03 05:16:29;;;;;;;24.48;14.45;;;;;;;;;;5034874;22;19927;-76
2022/01/03 05:19:00;;;;;;;38.78;19.73;;;;;;;;;;5034509;28;20435;-74
2022/01/03 05:21:26;;;;;;;54.20;31.73;;;;;;;;;;5038809;28;20025;-73
2022/01/03 05:23:53;;;;;;;86.55;49.65;;;;;;;;;;5032300;22;20045;-73
2022/01/03 05:26:19;;;;;;;76.55;45.38;;;;;;;;;;5056146;28;20362;-73
2022/01/03 05:28:47;;;;;;;72.78;40.65;;;;;;;;;;5014601;23;20060;-73
2022/01/03 05:31:14;;;;;;;65.72;35.67;;;;;;;;;;5018474;28;20370;-73
2022/01/03 05:36:25;;;;;;;44.97;25.95;;;;;;;;;;5031879;28;20046;-74
2022/01/03 05:38:51;;;;;;;44.88;23.83;;;;;;;;;;5027520;28;20102;-73
2022/01/03 05:41:17;;;;;;;35.65;21.00;;;;;;;;;;5033082;28;20264;-74
2022/01/03 05:43:45;;;;;;;40.78;21.92;;;;;;;;;;5035272;28;20018;-74
2022/01/03 05:46:12;;;;;;;43.53;20.88;;;;;;;;;;5019642;28;20381;-73
2022/01/03 05:48:39;;;;;;;35.17;19.98;;;;;;;;;;5017787;28;20039;-74
2022/01/03 05:51:05;;;;;;;31.58;20.98;;;;;;;;;;5018629;28;20343;-73
2022/01/03 05:53:31;;;;;;;48.97;19.83;;;;;;;;;;5036498;28;20038;-73
2022/01/03 05:55:58;;;;;;;36.35;18.98;;;;;;;;;;5036073;28;20091;-73
2022/01/03 05:58:24;;;;;;;32.03;18.67;;;;;;;;;;5035123;28;20017;-73
2022/01/03 06:00:50;;;;;;;28.13;15.52;;;;;;;;;;5034901;28;20021;-73
2022/01/03 06:03:20;;;;;;;35.47;18.80;;;;;;;;;;5035489;28;20312;-73
2022/01/03 06:08:21;;;;;;;34.88;19.50;;;;;;;;;;5035833;28;20068;-73
2022/01/03 06:10:50;;;;;;;37.30;19.88;;;;;;;;;;5034219;28;20013;-74
2022/01/03 06:13:16;;;;;;;53.55;21.05;;;;;;;;;;5019623;28;20021;-73
2022/01/03 06:15:44;;;;;;;45.85;22.27;;;;;;;;;;5002878;28;20449;-73
2022/01/03 06:18:14;;;;;;;41.10;22.05;;;;;;;;;;5033864;28;20021;-74
2022/01/03 06:20:42;;;;;;;35.70;19.67;;;;;;;;;;5034877;28;20021;-73
2022/01/03 06:23:15;;;;;;;31.73;16.60;;;;;;;;;;5017490;28;20374;-75
2022/01/03 06:25:42;;;;;;;51.17;21.35;;;;;;;;;;5018623;28;20021;-73
2022/01/03 06:28:09;;;;;;;41.75;18.73;;;;;;;;;;5018255;28;20025;-74
2022/01/03 06:30:40;;;;;;;42.42;20.23;;;;;;;;;;5018250;28;20056;-73
2022/01/03 06:33:07;;;;;;;34.63;19.80;;;;;;;;;;5017068;28;20017;-74
2022/01/03 06:35:33;;;;;;;42.83;20.17;;;;;;;;;;5034685;28;20025;-73
2022/01/03 06:38:00;;;;;;;34.47;19.30;;;;;;;;;;5034789;28;20021;-73
2022/01/03 06:40:26;;;;;;;29.67;15.25;;;;;;;;;;5033989;28;20431;-73
2022/01/03 06:42:53;;;;;;;29.23;15.27;;;;;;;;;;5034339;28;20331;-73
2022/01/03 06:45:19;;;;;;;31.63;15.15;;;;;;;;;;5035527;28;20031;-73
2022/01/03 06:47:46;;;;;;;34.00;15.60;;;;;;;;;;5035011;28;20029;-73
2022/01/03 06:50:13;;;;;;;33.85;16.48;;;;;;;;;;5015450;28;20037;-73
2022/01/03 06:52:40;;;;;;;34.80;15.98;;;;;;;;;;5034676;28;20025;-73
2022/01/03 06:55:08;;;;;;;37.47;17.42;;;;;;;;;;5002457;28;20041;-73
2022/01/03 06:57:34;;;;;;;45.97;20.50;;;;;;;;;;5018066;28;20435;-73
2022/01/03 07:00:00;;;;;;;49.70;23.45;;;;;;;;;;5034411;28;20187;-73
2022/01/03 07:02:26;;;;;;;80.35;27.33;;;;;;;;;;5018211;28;20029;-73
2022/01/03 07:04:53;;;;;;;50.97;23.23;;;;;;;;;;5034440;28;20026;-74
2022/01/03 07:07:20;;;;;;;47.95;24.17;;;;;;;;;;5017807;28;20387;-73
2022/01/03 07:09:46;;;;;;;56.47;22.95;;;;;;;;;;5035420;28;20064;-73
2022/01/03 07:12:13;;;;;;;55.20;21.60;;;;;;;;;;5017938;28;20032;-73
2022/01/03 07:19:56;;;;;;;43.03;19.33;;;;;;;;;;5040241;28;20044;-73
2022/01/03 07:22:25;;;;;;;53.10;20.75;;;;;;;;;;5022110;28;20075;-73
2022/01/03 07:24:52;;;;;;;45.20;22.13;;;;;;;;;;5021975;28;20115;-73
2022/01/03 07:27:19;;;;;;;57.70;24.83;;;;;;;;;;5038703;28;20017;-73
2022/01/03 07:29:47;;;;;;;59.47;30.25;;;;;;;;;;5038339;28;20035;-73
2022/01/03 07:32:13;;;;;;;71.50;37.65;;;;;;;;;;5037270;28;20067;-73
2022/01/03 07:34:40;;;;;;;98.65;43.75;;;;;;;;;;5038777;28;20026;-73
2022/01/03 07:37:06;;;;;;;88.13;51.45;;;;;;;;;;5037177;28;20028;-73
2022/01/03 07:39:35;;;;;;;93.78;52.95;;;;;;;;;;5038642;28;20033;-73
2022/01/03 07:42:09;;;;;;;84.35;49.38;;;;;;;;;;5022222;28;20053;-73
2022/01/03 07:44:38;;;;;;;93.68;50.10;;;;;;;;;;5038136;28;20037;-73
2022/01/03 07:47:09;;;;;;;91.85;51.88;;;;;;;;;;5021259;28;20108;-73
2022/01/03 07:49:37;;;;;;;108.90;47.53;;;;;;;;;;5019778;28;20447;-74
2022/01/03 07:52:07;;;;;;;84.60;43.13;;;;;;;;;;5038039;28;20060;-73
2022/01/03 07:54:38;;;;;;;94.40;45.30;;;;;;;;;;5038697;28;20020;-73
2022/01/03 07:57:05;;;;;;;93.55;42.97;;;;;;;;;;5038120;28;20025;-73
2022/01/03 07:59:31;;;;;;;75.93;35.72;;;;;;;;;;5021893;28;20025;-73
2022/01/03 08:01:58;;;;;;;67.95;28.70;;;;;;;;;;5020609;28;20331;-73
2022/01/03 08:04:26;;;;;;;64.43;30.48;;;;;;;;;;5037925;28;20324;-74
2022/01/03 08:06:59;;;;;;;54.13;24.02;;;;;;;;;;5021254;28;20025;-74
2022/01/03 08:09:26;;;;;;;35.25;19.85;;;;;;;;;;5035123;28;20037;-73
2022/01/03 08:11:55;;;;;;;41.03;18.77;;;;;;;;;;5020773;28;20033;-73
2022/01/03 08:14:24;;;;;;;45.03;19.25;;;;;;;;;;5044198;22;20036;-74
2022/01/03 08:16:51;;;;;;;36.13;18.38;;;;;;;;;;5040434;28;20346;-73
2022/01/03 08:19:17;;;;;;;35.63;16.20;;;;;;;;;;5037363;28;20135;-73
2022/01/03 08:21:43;;;;;;;33.33;16.23;;;;;;;;;;5024171;28;20096;-73
2022/01/03 08:24:09;;;;;;;30.33;17.40;;;;;;;;;;5024543;28;20053;-73
2022/01/03 08:26:38;;;;;;;39.58;19.05;;;;;;;;;;5022600;28;20108;-74
2022/01/03 08:29:05;;;;;;;47.38;20.10;;;;;;;;;;5057620;28;20382;-73
2022/01/03 08:31:37;;;;;;;54.67;24.92;;;;;;;;;;5024317;28;20108;-73
2022/01/03 08:34:03;;;;;;;45.47;22.17;;;;;;;;;;5058077;28;20362;-74
2022/01/03 08:36:30;;;;;;;48.35;24.40;;;;;;;;;;5040325;28;20024;-73
2022/01/03 08:38:58;;;;;;;44.63;23.60;;;;;;;;;;5039277;28;20036;-73
2022/01/03 08:41:30;;;;;;;42.95;22.02;;;;;;;;;;5023191;28;20390;-75
2022/01/03 08:44:06;;;;;;;56.65;23.80;;;;;;;;;;5022247;28;20021;-73
2022/01/03 08:46:34;;;;;;;48.67;23.52;;;;;;;;;;5040125;28;20415;-73
2022/01/03 08:49:02;;;;;;;45.10;21.67;;;;;;;;;;5038180;28;20255;-73
2022/01/03 08:51:29;;;;;;;50.05;23.92;;;;;;;;;;5021007;28;20025;-73
2022/01/03 08:54:02;;;;;;;46.13;21.65;;;;;;;;;;5043295;22;20055;-75
2022/01/03 08:56:28;;;;;;;52.90;22.85;;;;;;;;;;5039933;28;20052;-73
2022/01/03 08:58:58;;;;;;;51.40;22.83;;;;;;;;;;5038861;28;20049;-73
2022/01/03 09:01:26;;;;;;;50.40;24.02;;;;;;;;;;5022900;28;20402;-73
2022/01/03 09:03:52;;;;;;;51.10;25.02;;;;;;;;;;5040319;28;20077;-73
2022/01/03 09:06:19;;;;;;;46.63;25.02;;;;;;;;;;5057380;28;20029;-73
2022/01/03 09:08:54;;;;;;;48.65;24.58;;;;;;;;;;5035942;28;20439;-74
2022/01/03 09:11:27;;;;;;;50.47;24.40;;;;;;;;;;5056783;28;20338;-74
2022/01/03 09:13:55;;;;;;;47.50;25.35;;;;;;;;;;5038956;28;20484;-73
2022/01/03 09:16:22;;;;;;;43.25;24.85;;;;;;;;;;5040351;28;20312;-74
2022/01/03 09:18:49;;;;;;;47.63;26.83;;;;;;;;;;5023826;28;20304;-73
2022/01/03 09:21:15;;;;;;;43.20;24.00;;;;;;;;;;5023523;28;20020;-74
2022/01/03 09:23:48;;;;;;;41.92;24.15;;;;;;;;;;5021484;28;20136;-74
2022/01/03 09:29:05;;;;;;;48.47;24.98;;;;;;;;;;5037843;28;20044;-74
2022/01/03 09:31:43;;;;;;;38.65;21.67;;;;;;;;;;5031324;28;20081;-73
2022/01/03 09:34:13;;;;;;;37.10;20.80;;;;;;;;;;5022769;28;20024;-73
2022/01/03 09:36:40;;;;;;;46.00;23.95;;;;;;;;;;5022615;28;20407;-73
2022/01/03 09:39:23;;;;;;;46.58;24.63;;;;;;;;;;5024039;23;20366;-73
2022/01/03 09:41:58;;;;;;;56.45;27.45;;;;;;;;;;5021678;28;20025;-74
2022/01/03 09:44:50;;;;;;;49.78;28.45;;;;;;;;;;5011744;23;20363;-74
2022/01/03 09:47:19;;;;;;;50.22;26.88;;;;;;;;;;5001323;28;20119;-73
2022/01/03 09:49:46;;;;;;;61.33;31.50;;;;;;;;;;5035345;28;20223;-73
2022/01/03 09:52:15;;;;;;;59.60;31.80;;;;;;;;;;5019424;28;20352;-73
2022/01/03 09:54:42;;;;;;;53.20;27.98;;;;;;;;;;5031565;22;20044;-74
2022/01/03 09:57:14;;;;;;;53.97;26.33;;;;;;;;;;5020525;28;20020;-74
2022/01/03 09:59:45;;;;;;;51.80;28.58;;;;;;;;;;5037868;28;20025;-73
2022/01/03 10:02:18;;;;;;;58.75;27.92;;;;;;;;;;5021969;28;20036;-73
2022/01/03 10:04:53;;;;;;;64.80;30.95;;;;;;;;;;5055586;28;20114;-73
2022/01/03 10:10:08;;;;;;;58.80;30.25;;;;;;;;;;5055318;22;20314;-74
2022/01/03 10:12:41;;;;;;;58.60;32.85;;;;;;;;;;5021083;28;20021;-74
2022/01/03 10:15:25;;;;;;;63.95;22.88;;;;;;;;;;5010143;28;20032;-74
2022/01/03 10:17:52;;;;;;;40.15;22.00;;;;;;;;;;5014045;28;20032;-73
2022/01/03 10:20:19;;;;;;;44.05;24.45;;;;;;;;;;5037191;28;20021;-73
2022/01/03 10:22:45;;;;;;;43.30;19.85;;;;;;;;;;5035695;28;20105;-73
2022/01/03 10:25:14;;;;;;;40.88;21.90;;;;;;;;;;5038083;28;20043;-73
2022/01/03 10:27:49;;;;;;;50.67;24.27;;;;;;;;;;5054979;28;20016;-72
2022/01/03 10:30:33;;;;;;;40.17;18.65;;;;;;;;;;5018190;28;20047;-73
2022/01/03 10:33:25;;;;;;;30.80;13.57;;;;;;;;;;5019432;28;20191;-73
2022/01/03 10:36:31;;;;;;;40.30;14.68;;;;;;;;;;5034972;28;20603;-72
2022/01/03 10:39:34;;;;;;;33.83;14.60;;;;;;;;;;5030858;28;20097;-73
2022/01/03 10:42:17;;;;;;;25.05;13.68;;;;;;;;;;5022931;28;20182;-74
2022/01/03 10:44:44;;;;;;;25.50;12.07;;;;;;;;;;5014610;28;20116;-73
2022/01/03 10:47:14;;;;;;;29.65;13.32;;;;;;;;;;5019002;28;20049;-73
2022/01/03 10:49:42;;;;;;;;;;;;;;;;;;5015757;28;20120;-75
2022/01/03 10:52:22;;;;;;;26.42;12.52;;;;;;;;;;5018908;28;19912;-72
2022/01/03 10:55:07;;;;;;;34.75;16.65;;;;;;;;;;5033723;28;20116;-73
2022/01/03 10:57:48;;;;;;;29.48;15.43;;;;;;;;;;5036300;28;20021;-73
2022/01/03 11:00:29;;;;;;;28.75;14.38;;;;;;;;;;4995865;28;20038;-73
2022/01/03 11:03:14;;;;;;;27.67;15.32;;;;;;;;;;5034143;28;20094;-73
2022/01/03 11:05:43;;;;;;;30.80;15.27;;;;;;;;;;5034469;28;20022;-73
2022/01/03 11:10:44;;;;;;;26.95;13.93;;;;;;;;;;5035122;28;20021;-72
2022/01/03 11:13:17;;;;;;;29.10;14.50;;;;;;;;;;5017595;28;20085;-74
2022/01/03 11:15:51;;;;;;;49.92;17.42;;;;;;;;;;5034164;28;20458;-73
2022/01/03 11:18:19;;;;;;;39.50;18.40;;;;;;;;;;5018759;28;20033;-72
2022/01/03 11:21:01;;;;;;;39.58;18.05;;;;;;;;;;5013818;28;20028;-73
2022/01/03 11:23:27;;;;;;;37.47;16.77;;;;;;;;;;5035990;28;20316;-72
2022/01/03 11:25:54;;;;;;;31.50;16.67;;;;;;;;;;5017936;28;20026;-72
2022/01/03 11:28:21;;;;;;;35.45;18.20;;;;;;;;;;5035164;28;20017;-73
2022/01/03 11:30:55;;;;;;;30.40;16.27;;;;;;;;;;5033068;28;20025;-73
2022/01/03 11:33:22;;;;;;;36.25;16.85;;;;;;;;;;5034783;28;20104;-73
2022/01/03 11:35:50;;;;;;;31.55;17.23;;;;;;;;;;5018436;28;20022;-72
2022/01/03 11:38:21;;;;;;;29.35;17.88;;;;;;;;;;5032351;28;20029;-72
2022/01/03 11:40:47;;;;;;;33.90;17.25;;;;;;;;;;5036157;28;20100;-72
2022/01/03 11:43:13;;;;;;;36.97;18.88;;;;;;;;;;5034773;28;20378;-73
2022/01/03 11:45:40;;;;;;;41.63;17.80;;;;;;;;;;5035832;28;20420;-73
2022/01/03 11:48:07;;;;;;;37.58;19.73;;;;;;;;;;5035831;28;20035;-72
2022/01/03 11:50:33;;;;;;;42.95;20.45;;;;;;;;;;5036441;28;20033;-72
2022/01/03 11:52:59;;;;;;;45.25;20.30;;;;;;;;;;5035163;28;20309;-72
2022/01/03 11:55:25;;;;;;;33.53;19.27;;;;;;;;;;5034988;28;20065;-72
2022/01/03 12:05:56;;;;;;;25.25;15.02;;;;;;;;;;5039426;28;20115;-72
2022/01/03 12:08:24;;;;;;;33.42;15.25;;;;;;;;;;5039747;28;20017;-72
2022/01/03 12:10:51;;;;;;;32.20;16.13;;;;;;;;;;5038431;28;20035;-72
2022/01/03 12:13:19;;;;;;;44.33;18.08;;;;;;;;;;5039211;28;20044;-72
2022/01/03 12:15:45;;;;;;;37.15;17.38;;;;;;;;;;5038545;28;20029;-72
2022/01/03 12:18:35;;;;;;;41.55;22.08;;;;;;;;;;5039568;28;20021;-74
2022/01/03 12:21:02;;;;;;;;;;;;;;;;;;5038266;28;20048;-72
2022/01/03 12:23:38;;;;;;;50.42;25.88;;;;;;;;;;5039448;28;20288;-73
2022/01/03 12:26:13;;;;;;;46.42;24.33;;;;;;;;;;5037542;28;20017;-72
2022/01/03 12:29:01;;;;;;;61.22;33.20;;;;;;;;;;5020931;28;20037;-73
2022/01/03 12:31:27;;;;;;;53.53;28.85;;;;;;;;;;5039534;28;20391;-72
2022/01/03 12:34:12;;;;;;;84.07;42.38;;;;;;;;;;5037918;28;20454;-72
2022/01/03 12:36:38;;;;;;;101.25;50.65;;;;;;;;;;5038123;28;20076;-72
2022/01/03 12:39:07;;;;;;;100.07;48.55;;;;;;;;;;5021110;28;20123;-72
2022/01/03 12:41:39;;;;;;;87.55;48.60;;;;;;;;;;5039589;28;20021;-72
2022/01/03 12:44:05;;;;;;;101.95;51.72;;;;;;;;;;5039045;28;20033;-72
2022/01/03 12:46:31;;;;;;;102.38;51.10;;;;;;;;;;5038922;28;20024;-72
2022/01/03 12:49:18;;;;;;;116.03;59.53;;;;;;;;;;5020877;28;20039;-72
2022/01/03 12:51:44;;;;;;;132.90;63.05;;;;;;;;;;5038638;28;20524;-72
2022/01/03 12:54:11;;;;;;;132.00;69.85;;;;;;;;;;5038541;28;20017;-72
2022/01/03 12:56:37;;;;;;;133.52;67.35;;;;;;;;;;5021376;28;20022;-72
2022/01/03 12:59:11;;;;;;;153.07;74.53;;;;;;;;;;5039083;28;20120;-72
2022/01/03 13:01:37;;;;;;;152.27;76.95;;;;;;;;;;5038957;28;20021;-72
2022/01/03 13:04:18;;;;;;;180.82;90.63;;;;;;;;;;5037053;28;20033;-72
2022/01/03 13:06:44;;;;;;;187.48;92.10;;;;;;;;;;5037936;28;20053;-73
2022/01/03 13:09:13;;;;;;;202.60;99.45;;;;;;;;;;5038834;28;20041;-72
2022/01/03 13:11:46;;;;;;;157.90;76.28;;;;;;;;;;5018512;28;20029;-74
2022/01/03 13:14:20;;;;;;;98.90;56.05;;;;;;;;;;5010969;28;20018;-74
2022/01/03 13:16:55;;;;;;;80.32;41.60;;;;;;;;;;5018724;28;20021;-73
2022/01/03 13:19:27;;;;;;;79.43;40.25;;;;;;;;;;5036271;28;20324;-72
2022/01/03 13:22:01;;;;;;;74.25;38.35;;;;;;;;;;5043391;22;20045;-74
2022/01/03 13:24:36;;;;;;;66.47;35.35;;;;;;;;;;5035658;22;20207;-73
2022/01/03 13:27:22;;;;;;;62.88;33.15;;;;;;;;;;5047515;22;20129;-73
2022/01/03 13:30:03;;;;;;;71.82;35.35;;;;;;;;;;5035620;28;20044;-73
2022/01/03 13:32:37;;;;;;;61.90;33.70;;;;;;;;;;5019526;28;20124;-74
2022/01/03 13:35:10;;;;;;;52.92;28.70;;;;;;;;;;5035425;28;20334;-73
2022/01/03 13:37:51;;;;;;;57.65;30.60;;;;;;;;;;5048489;28;20063;-75
2022/01/03 13:40:51;;;;;;;61.25;28.98;;;;;;;;;;5014988;28;20035;-74
2022/01/03 13:43:21;;;;;;;69.82;29.75;;;;;;;;;;5033037;28;20319;-73
2022/01/03 13:51:18;;;;;;;52.58;29.38;;;;;;;;;;5054940;28;20553;-75
2022/01/03 13:53:52;;;;;;;42.85;21.92;;;;;;;;;;5021955;28;20028;-74
2022/01/03 13:56:28;;;;;;;39.33;23.30;;;;;;;;;;5016804;28;20048;-74
2022/01/03 13:58:58;;;;;;;49.88;26.17;;;;;;;;;;5019089;28;20044;-75
2022/01/03 14:01:30;;;;;;;50.05;26.15;;;;;;;;;;5019009;28;20021;-75
2022/01/03 14:04:07;;;;;;;58.58;32.58;;;;;;;;;;5018320;28;20024;-73
2022/01/03 14:06:34;;;;;;;58.75;31.30;;;;;;;;;;5031343;28;20063;-73
2022/01/03 14:09:12;;;;;;;54.80;28.45;;;;;;;;;;5015171;28;20470;-74
2022/01/03 14:11:43;;;;;;;57.17;30.90;;;;;;;;;;5036769;28;20045;-74
2022/01/03 14:14:23;;;;;;;49.58;27.58;;;;;;;;;;5033988;28;20043;-74
2022/01/03 14:17:01;;;;;;;54.65;29.55;;;;;;;;;;5040811;22;20036;-75
2022/01/03 14:19:40;;;;;;;51.58;29.42;;;;;;;;;;5036771;28;20024;-74
2022/01/03 14:22:14;;;;;;;56.63;31.83;;;;;;;;;;5013534;28;20036;-75
2022/01/03 14:25:08;;;;;;;65.38;31.42;;;;;;;;;;5032561;28;20025;-73
2022/01/03 14:27:45;;;;;;;55.17;33.00;;;;;;;;;;5032213;28;20053;-75
2022/01/03 14:30:27;;;;;;;55.22;30.15;;;;;;;;;;5020241;28;20082;-72
2022/01/03 14:33:28;;;;;;;49.28;29.08;;;;;;;;;;5036384;22;20053;-75
2022/01/03 14:36:01;;;;;;;57.20;27.05;;;;;;;;;;5034504;28;20017;-75
2022/01/03 14:38:31;;;;;;;58.15;27.70;;;;;;;;;;5019697;28;20028;-73
2022/01/03 14:41:01;;;;;;;45.47;26.60;;;;;;;;;;5021883;28;20240;-76
2022/01/03 14:43:37;;;;;;;50.90;28.35;;;;;;;;;;5019743;28;20346;-74
2022/01/03 14:46:18;;;;;;;51.40;29.75;;;;;;;;;;5049451;28;20036;-73
2022/01/03 14:48:53;;;;;;;46.88;28.83;;;;;;;;;;5033133;28;20036;-74
2022/01/03 14:51:38;;;;;;;66.55;31.10;;;;;;;;;;5034508;28;20432;-73
2022/01/03 14:54:17;;;;;;;54.40;30.05;;;;;;;;;;5054155;28;20029;-74
2022/01/03 14:56:53;;;;;;;46.35;26.25;;;;;;;;;;5008989;28;20029;-75
2022/01/03 14:59:29;;;;;;;47.63;27.77;;;;;;;;;;5022199;28;20017;-73
2022/01/03 15:01:55;;;;;;;;;;;;;;;;;;5021803;28;20032;-73
2022/01/03 15:04:32;;;;;;;59.05;30.23;;;;;;;;;;5019444;28;19905;-75
2022/01/03 15:07:24;;;;;;;63.45;30.98;;;;;;;;;;4985973;28;20432;-73
2022/01/03 15:09:55;;;;;;;67.43;31.75;;;;;;;;;;4996676;28;20403;-73
2022/01/03 15:12:23;;;;;;;59.85;32.35;;;;;;;;;;4998122;28;20072;-73
2022/01/03 15:14:55;;;;;;;60.15;29.20;;;;;;;;;;5031530;22;20447;-74
2022/01/03 15:17:26;;;;;;;55.00;32.25;;;;;;;;;;5048519;28;20021;-73
2022/01/03 15:19:52;;;;;;;56.22;31.77;;;;;;;;;;5054779;28;20031;-74
2022/01/03 15:22:22;;;;;;;67.95;30.42;;;;;;;;;;5019414;28;20411;-73
2022/01/03 15:25:02;;;;;;;62.88;29.20;;;;;;;;;;5037972;28;20119;-74
2022/01/03 15:27:34;;;;;;;61.25;29.80;;;;;;;;;;5017650;28;20021;-73